Accueil
METAR-TAF:

METAR-TAF

Aéroports :

Aéroport John A. Osborne

Montserrat, Montserrat

latitude: 16-47-29N, longitude: 062-11-36W, altitude: 168 m

Observation

Le bulletin a été fait il y a 54 minutes, à 12:00 UTC
Vent 11 kt de est, variant entre est/nord-est et sud-est
Température 25°C
Humidité 83%
Pression 1017 hPa
Visibilité 10 km ou plus
Nuages épars à une hauteur de 1600 ft
Nuages épars à une hauteur de 4000 ft
averses à proximité

METAR: TRPG 291200Z 08011KT 060V130 9999 VCSH SCT016 SCT040 25/22 Q1017 RMK VCSH-S

Heure: 08:54 (12:54 UTC)

Prévision

Le bulletin a été fait il y a 1 heure et 54 minutes, à 11:00 UTC
Prévision valable du 29 à 12 UTC au 30 à 12 UTC
Vent 11 kt de est/nord-est
Visibilité 10 km ou plus
Nuages épars à une hauteur de 2100 ft

TAF: TRPG 291100Z 2912/3012 07011KT 9999 SCT021

Observations et prévisions météorologiques de plus de 4000 aéroports (messages METAR et TAF).

Les stations disponibles sont représentées par des disques jaunes et rouges sur la carte.

Passer la souris dessus pour voir le nom de la station.

Cliquer dessus pour voir les observations et prévisions météorologiques.

Pour changer de carte: cliquez sur les boutons verts avec une croix noire pour zoomer, sur le bouton vert avec un tiret pour effectuer un zoom arrière, ou sur les flèches vertes pour les cartes adjacentes.


METAR-TAF: